AKT2801 CYWG-CYHM
Flight info
| Callsign | AKT2801 |
|---|---|
| Flight time | 0h 48m |
| Altitude | 39000 |
| Route | ELETO DCT GROLE DCT ROX DCT WIEDS Q834 DLH DCT CEWDA Q812 ZOHAN DCT HOCKE DCT AVSOX AVSOX2 |
| Aircraft | B737/M-SDE2E3FGHIRWXY/LB1 |
Departure
| Time | 2026-04-21 01:58 |
|---|---|
| Airport | Winnipeg / James Armstrong Richardson International Airport (CYWG) |
Arrival
| Time | 2026-04-21 02:46 |
|---|---|
| Airport | John C. Munro Hamilton International Airport (CYHM) |
| Time | Latitude | Longitude | Altitude | Speed | Heading |
|---|---|---|---|---|---|
| 2026-04-21 01:28 | 49.90667 | -97.22677 | 785 ft | 0 kts | 164° |
| 2026-04-21 01:49 | 49.90679 | -97.22682 | 785 ft | 4 kts | 166° |
| 2026-04-21 01:49 | 49.90705 | -97.22690 | 785 ft | 4 kts | 178° |
| 2026-04-21 01:49 | 49.90730 | -97.22685 | 785 ft | 4 kts | 210° |
| 2026-04-21 01:49 | 49.90746 | -97.22659 | 785 ft | 2 kts | 259° |
| 2026-04-21 01:50 | 49.90747 | -97.22650 | 785 ft | 0 kts | 260° |
| 2026-04-21 01:51 | 49.90746 | -97.22654 | 785 ft | 2 kts | 261° |
| 2026-04-21 01:52 | 49.90742 | -97.22693 | 785 ft | 6 kts | 259° |
| 2026-04-21 01:52 | 49.90720 | -97.22866 | 785 ft | 9 kts | 258° |
| 2026-04-21 01:52 | 49.90712 | -97.22932 | 785 ft | 9 kts | 258° |
| 2026-04-21 01:53 | 49.90694 | -97.23066 | 785 ft | 11 kts | 257° |
| 2026-04-21 01:53 | 49.90682 | -97.23148 | 785 ft | 12 kts | 259° |
| 2026-04-21 01:53 | 49.90662 | -97.23281 | 785 ft | 13 kts | 238° |
| 2026-04-21 01:53 | 49.90560 | -97.23356 | 785 ft | 12 kts | 198° |
| 2026-04-21 01:54 | 49.90505 | -97.23383 | 785 ft | 12 kts | 198° |
| 2026-04-21 01:54 | 49.90427 | -97.23425 | 785 ft | 12 kts | 199° |
| 2026-04-21 01:54 | 49.90341 | -97.23468 | 785 ft | 13 kts | 185° |
| 2026-04-21 01:54 | 49.90263 | -97.23394 | 785 ft | 14 kts | 138° |
| 2026-04-21 01:55 | 49.90188 | -97.23290 | 785 ft | 15 kts | 138° |
| 2026-04-21 01:55 | 49.90107 | -97.23178 | 785 ft | 16 kts | 139° |
| 2026-04-21 01:55 | 49.90019 | -97.23058 | 785 ft | 17 kts | 138° |
| 2026-04-21 01:55 | 49.89925 | -97.22930 | 785 ft | 18 kts | 139° |
| 2026-04-21 01:56 | 49.89842 | -97.22788 | 786 ft | 17 kts | 130° |
| 2026-04-21 01:56 | 49.89766 | -97.22647 | 785 ft | 17 kts | 129° |
| 2026-04-21 01:56 | 49.89689 | -97.22541 | 785 ft | 14 kts | 186° |
| 2026-04-21 01:56 | 49.89620 | -97.22636 | 785 ft | 13 kts | 228° |
| 2026-04-21 01:57 | 49.89560 | -97.22739 | 785 ft | 13 kts | 228° |
| 2026-04-21 01:57 | 49.89564 | -97.22851 | 784 ft | 12 kts | 319° |
| 2026-04-21 01:57 | 49.89716 | -97.23059 | 783 ft | 62 kts | 319° |
| 2026-04-21 01:57 | 49.90210 | -97.23733 | 789 ft | 126 kts | 319° |
| 2026-04-21 01:58 | 49.90985 | -97.24780 | 1040 ft | 157 kts | 321° |
| 2026-04-21 01:58 | 49.91876 | -97.25873 | 1718 ft | 162 kts | 323° |
| 2026-04-21 01:58 | 49.92659 | -97.26912 | 2900 ft | 144 kts | 318° |
| 2026-04-21 01:58 | 49.93425 | -97.27995 | 3443 ft | 164 kts | 317° |
| 2026-04-21 01:59 | 49.94349 | -97.29289 | 3685 ft | 192 kts | 317° |
| 2026-04-21 01:59 | 49.95330 | -97.30859 | 3962 ft | 215 kts | 300° |
| 2026-04-21 01:59 | 49.95582 | -97.33240 | 4312 ft | 243 kts | 261° |
| 2026-04-21 01:59 | 49.94684 | -97.35567 | 5015 ft | 264 kts | 224° |
| 2026-04-21 02:00 | 49.92974 | -97.36725 | 5889 ft | 283 kts | 191° |
| 2026-04-21 02:00 | 49.90970 | -97.36363 | 6700 ft | 297 kts | 167° |
| 2026-04-21 02:00 | 49.88978 | -97.35348 | 7589 ft | 306 kts | 156° |
| 2026-04-21 02:00 | 49.87304 | -97.33303 | 8532 ft | 313 kts | 133° |
| 2026-04-21 02:01 | 49.85845 | -97.30726 | 9545 ft | 318 kts | 131° |
| 2026-04-21 02:01 | 49.84397 | -97.28095 | 10397 ft | 326 kts | 131° |
| 2026-04-21 02:01 | 49.82838 | -97.25339 | 10772 ft | 353 kts | 132° |
| 2026-04-21 02:01 | 49.81152 | -97.22467 | 11329 ft | 369 kts | 133° |
| 2026-04-21 02:02 | 49.74280 | -97.11264 | 14788 ft | 385 kts | 135° |
| 2026-04-21 02:02 | 49.66543 | -96.98948 | 18209 ft | 408 kts | 135° |
| 2026-04-21 02:02 | 49.57555 | -96.88001 | 21095 ft | 426 kts | 153° |
| 2026-04-21 02:02 | 49.46960 | -96.78734 | 23862 ft | 446 kts | 153° |
| 2026-04-21 02:03 | 49.36198 | -96.68854 | 26292 ft | 459 kts | 151° |
| 2026-04-21 02:03 | 49.25023 | -96.58535 | 28500 ft | 473 kts | 151° |
| 2026-04-21 02:03 | 49.13671 | -96.48170 | 30451 ft | 485 kts | 151° |
| 2026-04-21 02:03 | 49.04058 | -96.33759 | 31831 ft | 498 kts | 109° |
| 2026-04-21 02:04 | 48.98923 | -96.14148 | 33488 ft | 499 kts | 112° |
| 2026-04-21 02:04 | 48.93059 | -95.94786 | 34995 ft | 496 kts | 113° |
| 2026-04-21 02:04 | 48.87362 | -95.75701 | 35947 ft | 502 kts | 112° |
| 2026-04-21 02:04 | 48.79911 | -95.58021 | 37298 ft | 500 kts | 130° |
| 2026-04-21 02:05 | 48.70811 | -95.41769 | 38231 ft | 505 kts | 130° |
| 2026-04-21 02:05 | 48.62044 | -95.25472 | 39028 ft | 507 kts | 129° |
| 2026-04-21 02:05 | 48.52995 | -95.08506 | 39005 ft | 521 kts | 129° |
| 2026-04-21 02:05 | 48.43788 | -94.91474 | 38871 ft | 520 kts | 129° |
| 2026-04-21 02:06 | 48.34740 | -94.74863 | 38838 ft | 513 kts | 129° |
| 2026-04-21 02:06 | 48.16869 | -94.42313 | 38780 ft | 495 kts | 129° |
| 2026-04-21 02:07 | 47.99446 | -94.10960 | 38907 ft | 491 kts | 129° |
| 2026-04-21 02:07 | 47.81687 | -93.79370 | 38965 ft | 505 kts | 130° |
| 2026-04-21 02:08 | 47.63415 | -93.47252 | 38855 ft | 506 kts | 130° |
| 2026-04-21 02:08 | 47.45147 | -93.16214 | 38883 ft | 496 kts | 135° |
| 2026-04-21 02:09 | 47.25696 | -92.87482 | 38904 ft | 490 kts | 135° |
| 2026-04-21 02:09 | 47.06370 | -92.58702 | 39010 ft | 500 kts | 135° |
| 2026-04-21 02:10 | 46.86436 | -92.29403 | 38912 ft | 512 kts | 135° |
| 2026-04-21 02:10 | 46.68499 | -91.97864 | 38871 ft | 502 kts | 124° |
| 2026-04-21 02:11 | 46.51949 | -91.65500 | 38963 ft | 492 kts | 126° |
| 2026-04-21 02:11 | 46.35389 | -91.33930 | 39018 ft | 495 kts | 126° |
| 2026-04-21 02:12 | 46.18342 | -91.01758 | 39076 ft | 510 kts | 127° |
| 2026-04-21 02:12 | 46.00954 | -90.69322 | 39025 ft | 508 kts | 127° |
| 2026-04-21 02:13 | 45.83807 | -90.37698 | 39001 ft | 497 kts | 127° |
| 2026-04-21 02:13 | 45.66808 | -90.06692 | 39079 ft | 492 kts | 127° |
| 2026-04-21 02:14 | 45.49624 | -89.75689 | 39103 ft | 504 kts | 127° |
| 2026-04-21 02:14 | 45.32018 | -89.44278 | 39087 ft | 512 kts | 128° |
| 2026-04-21 02:15 | 45.14278 | -89.12980 | 39041 ft | 504 kts | 128° |
| 2026-04-21 02:15 | 44.96870 | -88.82597 | 39108 ft | 495 kts | 128° |
| 2026-04-21 02:16 | 44.80092 | -88.51871 | 39090 ft | 495 kts | 110° |
| 2026-04-21 02:16 | 44.76792 | -88.33076 | 39218 ft | 494 kts | 99° |
| 2026-04-21 02:16 | 44.73198 | -88.14383 | 39181 ft | 504 kts | 101° |
| 2026-04-21 02:17 | 44.65663 | -87.76222 | 39130 ft | 500 kts | 101° |
| 2026-04-21 02:17 | 44.58279 | -87.39067 | 39135 ft | 493 kts | 101° |
| 2026-04-21 02:18 | 44.50834 | -87.02343 | 39193 ft | 487 kts | 102° |
| 2026-04-21 02:18 | 44.43258 | -86.65632 | 39245 ft | 494 kts | 102° |
| 2026-04-21 02:19 | 44.35430 | -86.28409 | 39203 ft | 499 kts | 102° |
| 2026-04-21 02:19 | 44.27571 | -85.91706 | 39189 ft | 490 kts | 102° |
| 2026-04-21 02:20 | 44.19718 | -85.55638 | 39194 ft | 485 kts | 102° |
| 2026-04-21 02:20 | 44.11698 | -85.19420 | 39271 ft | 492 kts | 103° |
| 2026-04-21 02:21 | 44.03381 | -84.82508 | 39280 ft | 504 kts | 103° |
| 2026-04-21 02:21 | 43.94919 | -84.45598 | 39218 ft | 498 kts | 103° |
| 2026-04-21 02:21 | 43.89574 | -84.27852 | 39277 ft | 499 kts | 115° |
| 2026-04-21 02:22 | 43.82693 | -84.11351 | 39254 ft | 498 kts | 116° |
| 2026-04-21 02:22 | 43.69346 | -83.77667 | 39344 ft | 505 kts | 115° |
| 2026-04-21 02:23 | 43.55496 | -83.43036 | 39360 ft | 516 kts | 115° |
| 2026-04-21 02:23 | 43.41647 | -83.08814 | 39314 ft | 507 kts | 115° |
| 2026-04-21 02:24 | 43.28101 | -82.75708 | 39330 ft | 492 kts | 115° |
| 2026-04-21 02:24 | 43.24975 | -82.58112 | 39384 ft | 473 kts | 87° |
| 2026-04-21 02:24 | 43.23689 | -82.39836 | 39432 ft | 484 kts | 90° |
| 2026-04-21 02:24 | 43.22040 | -82.21420 | 39414 ft | 496 kts | 91° |
| 2026-04-21 02:25 | 43.20360 | -82.02401 | 39373 ft | 500 kts | 91° |
| 2026-04-21 02:25 | 43.19174 | -81.89011 | 39353 ft | 489 kts | 91° |
| 2026-04-21 02:25 | 43.18758 | -81.84371 | 38909 ft | 488 kts | 90° |
| 2026-04-21 02:26 | 43.18342 | -81.79728 | 38262 ft | 486 kts | 90° |
| 2026-04-21 02:26 | 43.17932 | -81.75174 | 37620 ft | 484 kts | 90° |
| 2026-04-21 02:26 | 43.17517 | -81.70580 | 36942 ft | 483 kts | 90° |
| 2026-04-21 02:26 | 43.17106 | -81.66047 | 36254 ft | 482 kts | 89° |
| 2026-04-21 02:27 | 43.16687 | -81.61448 | 35515 ft | 483 kts | 89° |
| 2026-04-21 02:27 | 43.16272 | -81.56911 | 34724 ft | 485 kts | 89° |
| 2026-04-21 02:27 | 43.15992 | -81.53851 | 34111 ft | 487 kts | 89° |
| 2026-04-21 02:27 | 43.15426 | -81.47712 | 32866 ft | 488 kts | 89° |
| 2026-04-21 02:28 | 43.15135 | -81.44594 | 32443 ft | 484 kts | 89° |
| 2026-04-21 02:28 | 43.14570 | -81.38605 | 31627 ft | 477 kts | 88° |
| 2026-04-21 02:28 | 43.14286 | -81.35614 | 31221 ft | 474 kts | 88° |
| 2026-04-21 02:28 | 43.13862 | -81.31126 | 30608 ft | 469 kts | 88° |
| 2026-04-21 02:29 | 43.13509 | -81.27398 | 30086 ft | 465 kts | 88° |
| 2026-04-21 02:29 | 43.13092 | -81.23001 | 29379 ft | 460 kts | 88° |
| 2026-04-21 02:29 | 43.12682 | -81.18697 | 28748 ft | 455 kts | 89° |
| 2026-04-21 02:29 | 43.12272 | -81.14411 | 28115 ft | 449 kts | 89° |
| 2026-04-21 02:30 | 43.11867 | -81.10182 | 27500 ft | 444 kts | 89° |
| 2026-04-21 02:30 | 43.11469 | -81.06042 | 26890 ft | 440 kts | 89° |
| 2026-04-21 02:30 | 43.11068 | -81.01884 | 26286 ft | 436 kts | 90° |
| 2026-04-21 02:30 | 43.10674 | -80.97810 | 25697 ft | 433 kts | 90° |
| 2026-04-21 02:31 | 43.10276 | -80.93720 | 25100 ft | 429 kts | 90° |
| 2026-04-21 02:31 | 43.09885 | -80.89712 | 24525 ft | 427 kts | 91° |
| 2026-04-21 02:31 | 43.09489 | -80.85659 | 23874 ft | 426 kts | 91° |
| 2026-04-21 02:31 | 43.09099 | -80.81696 | 23183 ft | 423 kts | 91° |
| 2026-04-21 02:32 | 43.08704 | -80.77706 | 22537 ft | 419 kts | 92° |
| 2026-04-21 02:32 | 43.08313 | -80.73761 | 21926 ft | 415 kts | 92° |
| 2026-04-21 02:32 | 43.07927 | -80.69877 | 21332 ft | 410 kts | 92° |
| 2026-04-21 02:32 | 43.07540 | -80.66007 | 20739 ft | 407 kts | 92° |
| 2026-04-21 02:33 | 43.07161 | -80.62224 | 20153 ft | 403 kts | 92° |
| 2026-04-21 02:33 | 43.06890 | -80.58443 | 19464 ft | 400 kts | 88° |
| 2026-04-21 02:33 | 43.06778 | -80.54637 | 18829 ft | 396 kts | 86° |
| 2026-04-21 02:33 | 43.06718 | -80.50925 | 18169 ft | 394 kts | 86° |
| 2026-04-21 02:34 | 43.06661 | -80.47172 | 17350 ft | 393 kts | 87° |
| 2026-04-21 02:34 | 43.06589 | -80.43407 | 16605 ft | 392 kts | 87° |
| 2026-04-21 02:34 | 43.06504 | -80.39715 | 15974 ft | 388 kts | 88° |
| 2026-04-21 02:34 | 43.06408 | -80.36056 | 15372 ft | 383 kts | 88° |
| 2026-04-21 02:35 | 43.06307 | -80.32417 | 14765 ft | 379 kts | 88° |
| 2026-04-21 02:35 | 43.06205 | -80.28835 | 14178 ft | 374 kts | 88° |
| 2026-04-21 02:35 | 43.06103 | -80.25291 | 13542 ft | 370 kts | 89° |
| 2026-04-21 02:35 | 43.06002 | -80.21910 | 13291 ft | 347 kts | 88° |
| 2026-04-21 02:36 | 43.05906 | -80.18705 | 13110 ft | 324 kts | 88° |
| 2026-04-21 02:36 | 43.05817 | -80.15737 | 12928 ft | 306 kts | 88° |
| 2026-04-21 02:36 | 43.05731 | -80.12865 | 12435 ft | 299 kts | 88° |
| 2026-04-21 02:36 | 43.05648 | -80.10003 | 11828 ft | 298 kts | 88° |
| 2026-04-21 02:37 | 43.05563 | -80.07199 | 11253 ft | 296 kts | 88° |
| 2026-04-21 02:37 | 43.05476 | -80.04391 | 10733 ft | 293 kts | 89° |
| 2026-04-21 02:37 | 43.05390 | -80.01646 | 10211 ft | 290 kts | 89° |
| 2026-04-21 02:37 | 43.05303 | -79.98901 | 9632 ft | 287 kts | 89° |
| 2026-04-21 02:38 | 43.05217 | -79.96176 | 9054 ft | 284 kts | 89° |
| 2026-04-21 02:38 | 43.05132 | -79.93521 | 8531 ft | 281 kts | 90° |
| 2026-04-21 02:38 | 43.05046 | -79.90857 | 7992 ft | 278 kts | 90° |
| 2026-04-21 02:38 | 43.04961 | -79.88227 | 7473 ft | 275 kts | 90° |
| 2026-04-21 02:39 | 43.04878 | -79.85652 | 6971 ft | 272 kts | 91° |
| 2026-04-21 02:39 | 43.04793 | -79.83060 | 6438 ft | 269 kts | 91° |
| 2026-04-21 02:39 | 43.04709 | -79.80533 | 5964 ft | 265 kts | 92° |
| 2026-04-21 02:39 | 43.04626 | -79.78063 | 5762 ft | 249 kts | 92° |
| 2026-04-21 02:40 | 43.04783 | -79.75843 | 5613 ft | 227 kts | 66° |
| 2026-04-21 02:40 | 43.05637 | -79.74178 | 5463 ft | 204 kts | 40° |
| 2026-04-21 02:40 | 43.06749 | -79.73131 | 5322 ft | 188 kts | 20° |
| 2026-04-21 02:40 | 43.07973 | -79.72533 | 5025 ft | 185 kts | 14° |
| 2026-04-21 02:41 | 43.09190 | -79.72021 | 4708 ft | 184 kts | 14° |
| 2026-04-21 02:41 | 43.10419 | -79.71507 | 4397 ft | 183 kts | 13° |
| 2026-04-21 02:41 | 43.11693 | -79.71289 | 3820 ft | 186 kts | 339° |
| 2026-04-21 02:41 | 43.12591 | -79.72295 | 3678 ft | 165 kts | 294° |
| 2026-04-21 02:42 | 43.13037 | -79.73711 | 3473 ft | 161 kts | 291° |
| 2026-04-21 02:42 | 43.13449 | -79.75151 | 3267 ft | 162 kts | 288° |
| 2026-04-21 02:42 | 43.13815 | -79.76620 | 3047 ft | 163 kts | 287° |
| 2026-04-21 02:42 | 43.14150 | -79.78052 | 2830 ft | 152 kts | 286° |
| 2026-04-21 02:43 | 43.14455 | -79.79379 | 2653 ft | 141 kts | 285° |
| 2026-04-21 02:43 | 43.14735 | -79.80616 | 2459 ft | 134 kts | 286° |
| 2026-04-21 02:43 | 43.15008 | -79.81824 | 2275 ft | 130 kts | 285° |
| 2026-04-21 02:43 | 43.15275 | -79.83005 | 2124 ft | 131 kts | 286° |
| 2026-04-21 02:44 | 43.15541 | -79.84187 | 1943 ft | 131 kts | 286° |
| 2026-04-21 02:44 | 43.15806 | -79.85357 | 1765 ft | 127 kts | 286° |
| 2026-04-21 02:44 | 43.16068 | -79.86518 | 1596 ft | 128 kts | 286° |
| 2026-04-21 02:44 | 43.16333 | -79.87681 | 1434 ft | 129 kts | 287° |
| 2026-04-21 02:45 | 43.16613 | -79.88867 | 1291 ft | 131 kts | 285° |
| 2026-04-21 02:45 | 43.16883 | -79.90055 | 1107 ft | 130 kts | 284° |
| 2026-04-21 02:45 | 43.17141 | -79.91226 | 929 ft | 129 kts | 285° |
| 2026-04-21 02:45 | 43.17400 | -79.92389 | 779 ft | 120 kts | 285° |
| 2026-04-21 02:46 | 43.17576 | -79.93172 | 779 ft | 56 kts | 287° |
| 2026-04-21 02:46 | 43.17650 | -79.93513 | 776 ft | 21 kts | 287° |
| 2026-04-21 02:46 | 43.17662 | -79.93628 | 777 ft | 10 kts | 237° |
| 2026-04-21 02:46 | 43.17599 | -79.93669 | 777 ft | 10 kts | 195° |
| 2026-04-21 02:47 | 43.17530 | -79.93681 | 777 ft | 10 kts | 166° |
| 2026-04-21 02:47 | 43.17492 | -79.93607 | 777 ft | 10 kts | 109° |
| 2026-04-21 02:47 | 43.17473 | -79.93520 | 777 ft | 9 kts | 104° |
| 2026-04-21 02:47 | 43.17457 | -79.93433 | 777 ft | 9 kts | 104° |
| 2026-04-21 02:48 | 43.17439 | -79.93351 | 777 ft | 9 kts | 110° |
| 2026-04-21 02:48 | 43.17419 | -79.93271 | 777 ft | 9 kts | 108° |
| 2026-04-21 02:48 | 43.17401 | -79.93193 | 778 ft | 8 kts | 107° |
| 2026-04-21 02:48 | 43.17378 | -79.93120 | 778 ft | 9 kts | 127° |
| 2026-04-21 02:49 | 43.17321 | -79.93063 | 777 ft | 12 kts | 153° |
| 2026-04-21 02:49 | 43.17236 | -79.92998 | 777 ft | 15 kts | 149° |
| 2026-04-21 02:49 | 43.17146 | -79.92928 | 777 ft | 15 kts | 150° |
| 2026-04-21 02:49 | 43.17054 | -79.92854 | 772 ft | 17 kts | 150° |
| 2026-04-21 02:50 | 43.16952 | -79.92774 | 776 ft | 16 kts | 150° |
| 2026-04-21 02:50 | 43.16855 | -79.92698 | 776 ft | 16 kts | 150° |
| 2026-04-21 02:50 | 43.16762 | -79.92626 | 776 ft | 15 kts | 150° |
| 2026-04-21 02:50 | 43.16673 | -79.92556 | 776 ft | 14 kts | 150° |
| 2026-04-21 02:51 | 43.16588 | -79.92491 | 776 ft | 14 kts | 151° |
| 2026-04-21 02:51 | 43.16501 | -79.92469 | 776 ft | 13 kts | 200° |
| 2026-04-21 02:51 | 43.16427 | -79.92503 | 776 ft | 7 kts | 197° |
| 2026-04-21 02:51 | 43.16402 | -79.92513 | 776 ft | 0 kts | 197° |